Time;durP1;ratioP1;P1;durP2;ratioP2;P2;SDS_P1;SDS_P2;PMS_P1;PMS_P2;Temp;Humidity;BMP_temperature;BMP_pressure;BME280_temperature;BME280_humidity;BME280_pressure;Samples;Min_cycle;Max_cycle;Signal;HPM_P1;HPM_P2
2021/11/16 00:00:34;;;;;;;105.50;34.67;;;;;;;3.87;97.10;102738.50;5035056;28;20389;-83
2021/11/16 00:03:00;;;;;;;110.15;35.03;;;;;;;3.88;97.73;102732.31;5034430;28;20040;-82
2021/11/16 00:05:25;;;;;;;110.10;32.80;;;;;;;3.88;97.82;102729.69;5034839;28;20038;-83
2021/11/16 00:07:52;;;;;;;113.10;34.05;;;;;;;3.88;97.65;102733.19;5037114;28;20112;-83
2021/11/16 00:10:18;;;;;;;98.85;33.85;;;;;;;3.89;97.31;102723.50;5038589;28;20029;-81
2021/11/16 00:12:43;;;;;;;96.68;33.30;;;;;;;3.91;97.16;102731.38;5034179;28;20032;-81
2021/11/16 00:15:09;;;;;;;107.18;34.20;;;;;;;3.88;97.09;102722.66;5033160;28;20041;-82
2021/11/16 00:17:35;;;;;;;114.97;34.88;;;;;;;3.88;96.93;102721.78;5034539;28;20057;-82
2021/11/16 00:20:02;;;;;;;97.45;32.72;;;;;;;3.87;97.20;102715.66;5034105;28;20473;-82
2021/11/16 00:22:29;;;;;;;102.63;36.05;;;;;;;3.86;97.42;102713.94;5033574;28;20072;-82
2021/11/16 00:27:25;;;;;;;106.60;35.40;;;;;;;3.84;96.63;102720.19;5034446;28;20037;-82
2021/11/16 00:29:51;;;;;;;108.95;36.22;;;;;;;3.83;96.57;102713.19;5033554;28;20385;-81
2021/11/16 00:32:16;;;;;;;107.63;35.20;;;;;;;3.84;96.92;102709.66;5034186;28;20033;-82
2021/11/16 00:34:42;;;;;;;109.18;36.28;;;;;;;3.84;97.01;102707.00;5034145;28;20113;-82
2021/11/16 00:37:07;;;;;;;110.80;35.72;;;;;;;3.81;96.73;102705.34;5032593;28;20045;-82
2021/11/16 00:39:32;;;;;;;110.07;37.20;;;;;;;3.82;96.92;102699.16;5033869;28;20041;-82
2021/11/16 00:41:58;;;;;;;111.35;37.92;;;;;;;3.81;97.41;102700.06;5033331;28;20477;-82
2021/11/16 00:44:23;;;;;;;99.95;36.80;;;;;;;3.80;96.80;102695.69;5033919;28;20040;-83
2021/11/16 00:46:49;;;;;;;101.82;36.90;;;;;;;3.82;97.14;102693.00;5033325;28;20470;-82
2021/11/16 00:49:14;;;;;;;110.38;39.05;;;;;;;3.83;97.42;102692.13;5032407;28;20160;-83
2021/11/16 00:51:41;;;;;;;104.50;37.03;;;;;;;3.83;97.45;102697.38;5033797;28;20042;-83
2021/11/16 00:54:07;;;;;;;105.55;36.88;;;;;;;3.81;96.75;102699.22;5033109;28;20123;-82
2021/11/16 00:56:32;;;;;;;105.32;35.83;;;;;;;3.80;97.00;102706.22;5033718;28;20478;-81
2021/11/16 00:58:57;;;;;;;109.55;37.80;;;;;;;3.80;97.14;102705.38;5033098;28;20041;-81
2021/11/16 01:01:23;;;;;;;103.53;36.58;;;;;;;3.79;96.88;102715.06;5033611;28;20065;-82
2021/11/16 01:03:48;;;;;;;107.47;35.85;;;;;;;3.77;96.70;102708.97;5033127;28;20474;-80
2021/11/16 01:06:14;;;;;;;93.43;35.97;;;;;;;3.72;96.69;102710.91;5033493;28;20113;-82
2021/11/16 01:08:39;;;;;;;96.57;36.47;;;;;;;3.73;96.65;102717.88;5033311;28;20033;-81
2021/11/16 01:11:05;;;;;;;99.97;36.47;;;;;;;3.69;96.47;102711.84;5031614;28;20061;-81
2021/11/16 01:13:30;;;;;;;95.28;35.65;;;;;;;3.69;96.53;102713.63;5033534;28;20037;-82
2021/11/16 01:15:56;;;;;;;94.90;34.80;;;;;;;3.67;96.04;102715.44;5032724;28;20036;-81
2021/11/16 01:18:25;;;;;;;112.03;35.85;;;;;;;3.67;96.53;102710.16;5033142;28;20084;-82
2021/11/16 01:20:51;;;;;;;108.28;38.35;;;;;;;3.68;97.49;102710.13;5031860;28;20033;-78
2021/11/16 01:23:18;;;;;;;99.00;35.75;;;;;;;3.69;97.49;102708.38;5033081;28;20057;-82
2021/11/16 01:25:45;;;;;;;107.13;37.00;;;;;;;3.69;97.30;102697.84;5033371;28;20033;-82
2021/11/16 01:28:13;;;;;;;99.18;35.63;;;;;;;3.68;97.03;102701.38;5032709;28;20029;-82
2021/11/16 01:30:43;;;;;;;89.88;34.15;;;;;;;3.65;96.30;102698.84;5032989;28;20529;-82
2021/11/16 01:33:12;;;;;;;96.53;34.78;;;;;;;3.64;96.65;102695.34;5032531;28;20366;-82
2021/11/16 01:35:38;;;;;;;102.97;35.13;;;;;;;3.63;96.54;102691.00;5031825;28;20389;-82
2021/11/16 01:38:06;;;;;;;89.55;33.78;;;;;;;3.62;96.31;102698.94;5032327;28;20033;-82
2021/11/16 01:40:33;;;;;;;95.68;34.17;;;;;;;3.61;96.56;102691.94;5033037;28;20041;-82
2021/11/16 01:42:59;;;;;;;93.65;33.78;;;;;;;3.59;96.25;102696.41;5032296;28;20427;-82
2021/11/16 01:47:53;;;;;;;90.68;34.97;;;;;;;3.58;96.64;102695.50;5031368;28;20045;-83
2021/11/16 01:50:20;;;;;;;94.93;35.33;;;;;;;3.57;96.69;102685.91;5033014;28;20390;-83
2021/11/16 01:52:47;;;;;;;96.57;34.30;;;;;;;3.57;96.86;102683.28;5014972;28;20033;-84
2021/11/16 01:55:14;;;;;;;92.35;34.85;;;;;;;3.55;97.00;102681.59;5033136;28;20033;-84
2021/11/16 01:57:40;;;;;;;93.13;35.17;;;;;;;3.53;97.08;102684.28;5032916;28;20108;-83
2021/11/16 02:00:10;;;;;;;97.15;36.05;;;;;;;3.53;97.40;102674.59;5032666;28;20067;-83
2021/11/16 02:02:36;;;;;;;103.53;36.58;;;;;;;3.53;97.74;102671.13;5032811;28;20044;-84
2021/11/16 02:05:02;;;;;;;107.13;38.42;;;;;;;3.50;97.61;102679.13;5032104;28;20059;-83
2021/11/16 02:07:28;;;;;;;117.70;37.75;;;;;;;3.51;98.10;102672.97;5032435;28;20045;-83
2021/11/16 02:09:53;;;;;;;120.18;39.20;;;;;;;3.51;98.74;102668.53;5032622;28;20033;-83
2021/11/16 02:12:18;;;;;;;115.90;39.55;;;;;;;3.54;98.94;102670.22;5032226;28;20037;-83
2021/11/16 02:14:44;;;;;;;115.25;39.45;;;;;;;3.50;98.88;102672.06;5032474;28;20030;-83
2021/11/16 02:17:09;;;;;;;108.28;37.05;;;;;;;3.51;98.80;102668.53;5032029;28;20045;-83
2021/11/16 02:19:36;;;;;;;111.93;35.85;;;;;;;3.50;99.10;102661.53;5032347;28;20037;-82
2021/11/16 02:22:02;;;;;;;116.63;37.92;;;;;;;3.49;99.22;102656.34;5031754;28;20033;-83
2021/11/16 02:24:27;;;;;;;106.15;37.60;;;;;;;3.47;99.18;102652.91;5032400;28;20049;-83
2021/11/16 02:26:52;;;;;;;112.13;36.47;;;;;;;3.46;99.02;102652.06;5014720;28;20033;-83
2021/11/16 02:29:18;;;;;;;119.32;37.90;;;;;;;3.45;99.12;102644.16;5031811;28;20037;-83
2021/11/16 02:31:44;;;;;;;112.22;38.20;;;;;;;3.43;99.04;102646.84;5032561;28;20037;-83
2021/11/16 02:34:10;;;;;;;115.82;37.95;;;;;;;3.42;99.17;102645.16;5031800;28;20045;-83
2021/11/16 02:36:37;;;;;;;115.57;37.95;;;;;;;3.44;99.35;102642.47;5032852;28;20382;-83
2021/11/16 02:39:05;;;;;;;110.70;37.65;;;;;;;3.44;99.70;102643.31;5031795;28;20044;-83
2021/11/16 02:41:31;;;;;;;106.90;37.67;;;;;;;3.43;99.47;102643.38;5032419;28;20030;-83
2021/11/16 02:44:03;;;;;;;106.80;37.17;;;;;;;3.44;99.72;102642.47;5032086;28;20033;-83
2021/11/16 02:46:30;;;;;;;111.60;37.97;;;;;;;3.46;100.00;102646.78;5034105;28;20092;-83
2021/11/16 02:48:55;;;;;;;126.85;39.67;;;;;;;3.45;100.00;102645.06;5035784;28;20042;-83
2021/11/16 02:51:21;;;;;;;115.85;37.95;;;;;;;3.43;99.27;102652.13;5035602;28;20367;-83
2021/11/16 02:53:48;;;;;;;111.00;36.95;;;;;;;3.42;99.17;102644.28;5035878;28;20057;-83
2021/11/16 02:56:13;;;;;;;111.97;37.30;;;;;;;3.41;99.49;102653.94;5035770;28;20084;-83
2021/11/16 02:58:39;;;;;;;109.88;36.63;;;;;;;3.42;99.71;102653.03;5035932;28;20504;-82
2021/11/16 03:01:12;;;;;;;110.00;37.30;;;;;;;3.41;99.46;102653.09;5035322;28;20061;-83
2021/11/16 03:03:39;;;;;;;104.53;35.97;;;;;;;3.39;98.98;102650.50;5035580;28;20041;-83
2021/11/16 03:06:05;;;;;;;104.40;36.80;;;;;;;3.39;99.05;102654.91;5035573;28;20034;-82
2021/11/16 03:08:30;;;;;;;100.80;35.17;;;;;;;3.37;99.10;102644.41;5018070;28;20079;-83
2021/11/16 03:10:58;;;;;;;103.18;35.90;;;;;;;3.33;98.28;102654.19;5035929;28;20048;-84
2021/11/16 03:13:25;;;;;;;100.47;36.75;;;;;;;3.33;98.48;102637.56;5035116;28;20037;-83
2021/11/16 03:15:51;;;;;;;108.18;36.60;;;;;;;3.34;99.04;102647.16;5035347;28;20053;-83
2021/11/16 03:18:17;;;;;;;101.57;35.30;;;;;;;3.34;99.25;102641.88;5034925;28;20056;-84
2021/11/16 03:20:43;;;;;;;111.13;37.97;;;;;;;3.35;99.15;102644.47;5035614;28;20059;-83
2021/11/16 03:25:37;;;;;;;109.40;36.40;;;;;;;3.34;98.72;102647.16;5035438;28;20037;-84
2021/11/16 03:28:07;;;;;;;108.70;37.30;;;;;;;3.34;98.91;102648.03;5035307;28;20029;-83
2021/11/16 03:30:34;;;;;;;106.88;36.65;;;;;;;3.33;98.65;102642.81;5035244;28;20030;-83
2021/11/16 03:32:59;;;;;;;99.10;36.55;;;;;;;3.31;98.27;102642.88;5035332;28;20068;-82
2021/11/16 03:35:25;;;;;;;110.55;37.17;;;;;;;3.35;98.85;102649.72;5034913;28;20073;-82
2021/11/16 03:37:55;;;;;;;118.10;37.67;;;;;;;3.38;99.20;102650.56;5035009;28;20481;-83
2021/11/16 03:40:22;;;;;;;119.30;38.17;;;;;;;3.40;99.39;102646.09;5034733;28;20037;-82
2021/11/16 03:42:49;;;;;;;104.68;36.63;;;;;;;3.39;99.51;102650.50;5035004;28;20477;-82
2021/11/16 03:45:18;;;;;;;113.57;38.15;;;;;;;3.36;98.77;102650.63;5034542;28;20087;-82
2021/11/16 03:47:45;;;;;;;102.00;35.72;;;;;;;3.35;98.47;102656.78;5035734;28;20053;-83
2021/11/16 03:50:16;;;;;;;103.20;36.45;;;;;;;3.33;98.58;102650.72;5036101;28;20051;-82
2021/11/16 03:52:43;;;;;;;100.83;36.53;;;;;;;3.32;98.22;102647.19;5035685;28;20036;-82
2021/11/16 03:55:11;;;;;;;102.45;36.50;;;;;;;3.32;98.72;102655.09;5034259;28;20033;-82
2021/11/16 03:57:38;;;;;;;103.68;36.60;;;;;;;3.32;98.94;102659.50;5033427;28;20377;-83
2021/11/16 04:00:15;;;;;;;106.20;34.70;;;;;;;3.32;99.08;102655.09;5034526;28;20068;-83
2021/11/16 04:02:40;;;;;;;103.13;36.30;;;;;;;3.32;99.10;102655.09;5034720;28;20048;-83
2021/11/16 04:05:06;;;;;;;96.47;35.13;;;;;;;3.33;99.26;102659.44;5034656;28;20038;-83
2021/11/16 04:07:33;;;;;;;94.85;33.05;;;;;;;3.34;99.10;102662.94;5016419;28;20037;-83
2021/11/16 04:09:58;;;;;;;101.60;35.10;;;;;;;3.33;98.92;102663.88;5034275;28;20477;-84
2021/11/16 04:12:24;;;;;;;93.47;32.40;;;;;;;3.30;98.76;102654.28;5033835;28;20108;-83
2021/11/16 04:14:50;;;;;;;97.40;34.03;;;;;;;3.31;98.75;102660.41;5034476;28;20129;-83
2021/11/16 04:17:16;;;;;;;94.22;33.38;;;;;;;3.29;97.74;102660.44;5033849;28;20061;-83
2021/11/16 04:19:43;;;;;;;87.22;30.10;;;;;;;3.28;97.84;102663.97;5034464;28;20036;-84
2021/11/16 04:22:09;;;;;;;83.90;30.40;;;;;;;3.27;97.14;102664.03;5016760;28;20072;-83
2021/11/16 04:24:35;;;;;;;84.07;31.27;;;;;;;3.28;97.21;102663.13;5015971;28;20128;-82
2021/11/16 04:27:00;;;;;;;87.40;32.20;;;;;;;3.26;96.55;102665.81;5034015;28;20116;-83
2021/11/16 04:29:25;;;;;;;90.78;32.95;;;;;;;3.26;97.00;102657.91;5033732;28;20026;-83
2021/11/16 04:31:51;;;;;;;100.22;33.53;;;;;;;3.25;97.20;102658.81;5034182;28;20116;-84
2021/11/16 04:34:17;;;;;;;98.40;33.35;;;;;;;3.27;97.37;102656.13;5033743;28;20124;-83
2021/11/16 04:36:43;;;;;;;102.10;35.33;;;;;;;3.27;97.86;102656.13;5034130;28;20033;-83
2021/11/16 04:39:09;;;;;;;97.43;34.67;;;;;;;3.29;98.37;102654.34;5033965;28;20049;-83
2021/11/16 04:41:36;;;;;;;94.63;34.20;;;;;;;3.30;98.50;102658.66;5033448;28;20033;-83
2021/11/16 04:44:05;;;;;;;90.82;33.10;;;;;;;3.28;98.40;102656.09;5034129;28;20485;-84
2021/11/16 04:46:30;;;;;;;104.63;34.13;;;;;;;3.27;98.38;102659.66;5033482;28;20049;-83
2021/11/16 04:55:10;;;;;;;95.70;33.00;;;;;;;3.29;98.52;102657.81;5033972;28;20551;-83
2021/11/16 04:59:48;;;;;;;100.07;33.97;;;;;;;3.33;99.44;102655.97;5033388;28;20429;-83
2021/11/16 05:05:00;;;;;;;95.80;33.10;;;;;;;3.31;99.16;102636.72;5033469;28;20068;-84
2021/11/16 05:07:28;;;;;;;105.80;33.55;;;;;;;3.31;99.39;102637.59;5032845;28;20040;-84
2021/11/16 05:09:58;;;;;;;104.78;34.20;;;;;;;3.31;98.91;102636.72;5033042;28;20398;-83
2021/11/16 05:12:25;;;;;;;99.20;33.88;;;;;;;3.30;99.12;102635.88;5032866;28;20048;-83
2021/11/16 05:14:52;;;;;;;97.45;32.53;;;;;;;3.32;98.90;102630.56;5033160;28;20416;-83
2021/11/16 05:17:17;;;;;;;100.70;34.55;;;;;;;3.33;99.15;102632.28;5033862;28;20104;-83
2021/11/16 05:19:43;;;;;;;102.68;34.33;;;;;;;3.29;98.90;102620.13;5032800;28;20033;-83
2021/11/16 05:22:08;;;;;;;107.53;34.05;;;;;;;3.30;98.56;102621.84;5033259;28;20087;-83
2021/11/16 05:24:34;;;;;;;93.38;32.50;;;;;;;3.30;98.69;102624.47;5031400;28;20120;-84
2021/11/16 05:27:00;;;;;;;96.90;32.97;;;;;;;3.29;98.47;102620.13;5033019;28;20048;-83
2021/11/16 05:29:26;;;;;;;97.65;33.20;;;;;;;3.29;97.97;102618.34;5032394;28;20442;-84
2021/11/16 05:31:52;;;;;;;90.03;33.38;;;;;;;3.28;97.48;102628.94;5015298;28;20037;-84
2021/11/16 05:34:17;;;;;;;100.13;32.90;;;;;;;3.27;97.42;102635.97;5033428;28;20091;-84
2021/11/16 05:36:43;;;;;;;90.97;31.35;;;;;;;3.25;96.75;102629.88;5032505;28;20116;-84
2021/11/16 05:39:09;;;;;;;92.93;32.55;;;;;;;3.24;97.04;102624.66;5032927;28;20037;-84
2021/11/16 05:41:35;;;;;;;92.35;32.92;;;;;;;3.25;97.10;102629.03;5014833;28;20033;-84
2021/11/16 05:44:01;;;;;;;100.60;34.47;;;;;;;3.27;97.25;102629.81;5031481;28;20469;-85
2021/11/16 05:46:26;;;;;;;99.25;33.70;;;;;;;3.26;97.14;102628.13;5032447;28;20077;-84
2021/11/16 05:48:54;;;;;;;97.18;34.53;;;;;;;3.27;97.24;102629.81;5032803;28;20401;-84
2021/11/16 05:51:23;;;;;;;98.05;34.60;;;;;;;3.27;97.66;102625.44;5032846;28;20025;-84
2021/11/16 05:53:55;;;;;;;101.57;34.13;;;;;;;3.28;97.71;102621.03;5032793;28;20029;-84
2021/11/16 05:56:23;;;;;;;95.97;33.95;;;;;;;3.26;97.32;102628.13;5032775;28;20529;-84
2021/11/16 05:58:52;;;;;;;97.15;35.00;;;;;;;3.25;96.81;102629.88;5032300;28;20378;-84
2021/11/16 06:01:18;;;;;;;93.50;33.80;;;;;;;3.23;96.43;102623.81;5015600;28;20124;-84
2021/11/16 06:03:44;;;;;;;91.60;32.75;;;;;;;3.26;97.26;102622.88;5032388;28;20029;-84
2021/11/16 06:06:10;;;;;;;95.75;34.03;;;;;;;3.27;97.74;102619.31;5032522;28;20030;-84
2021/11/16 06:08:36;;;;;;;100.68;35.03;;;;;;;3.27;97.53;102625.44;5032336;28;20033;-84
2021/11/16 06:11:02;;;;;;;107.25;35.88;;;;;;;3.28;97.90;102613.13;5032910;28;20445;-84
2021/11/16 06:13:27;;;;;;;116.60;36.25;;;;;;;3.28;98.12;102616.63;5032135;28;20129;-84
2021/11/16 06:15:53;;;;;;;98.57;35.03;;;;;;;3.29;98.59;102606.97;5032643;28;20373;-84
2021/11/16 06:18:22;;;;;;;100.70;34.08;;;;;;;3.29;98.23;102609.59;5032537;28;20034;-84
2021/11/16 06:20:50;;;;;;;114.88;35.90;;;;;;;3.29;98.05;102612.25;5032978;28;20049;-84
2021/11/16 06:23:15;;;;;;;106.97;36.35;;;;;;;3.29;97.95;102609.59;5018667;28;20022;-84
2021/11/16 06:25:41;;;;;;;110.00;35.85;;;;;;;3.29;97.65;102601.72;5035914;28;20026;-84
2021/11/16 06:28:07;;;;;;;109.90;35.78;;;;;;;3.29;97.73;102605.19;5036342;28;20128;-87
2021/11/16 06:30:33;;;;;;;106.68;36.42;;;;;;;3.29;97.50;102604.34;5031468;28;20088;-81
2021/11/16 06:32:58;;;;;;;104.43;35.03;;;;;;;3.30;98.13;102603.41;5013876;28;20057;-83
2021/11/16 06:35:25;;;;;;;106.22;34.35;;;;;;;3.28;97.80;102606.09;5014011;28;20038;-82
2021/11/16 06:37:52;;;;;;;103.85;32.15;;;;;;;3.29;97.62;102614.88;5013390;28;20029;-79
2021/11/16 06:40:18;;;;;;;103.90;35.75;;;;;;;3.28;97.43;102606.09;5013636;28;20111;-79
2021/11/16 06:42:44;;;;;;;96.70;34.20;;;;;;;3.29;97.36;102601.72;5012883;28;20037;-80
2021/11/16 06:45:10;;;;;;;90.38;32.95;;;;;;;3.30;97.07;102600.78;5013764;28;20065;-82
2021/11/16 06:47:36;;;;;;;93.22;32.70;;;;;;;3.30;96.42;102604.31;5013036;28;20080;-79
2021/11/16 06:50:02;;;;;;;88.32;31.45;;;;;;;3.26;95.21;102602.66;5012070;28;20060;-81
2021/11/16 06:52:30;;;;;;;84.03;30.90;;;;;;;3.25;95.18;102606.19;5013375;28;20409;-80
2021/11/16 06:54:56;;;;;;;90.32;31.20;;;;;;;3.27;95.94;102595.63;5012858;28;20157;-79
2021/11/16 06:57:26;;;;;;;94.40;32.35;;;;;;;3.26;96.34;102599.19;5013567;28;20095;-80
2021/11/16 06:59:51;;;;;;;86.28;30.75;;;;;;;3.27;96.80;102604.41;5013125;28;20235;-82
2021/11/16 07:02:22;;;;;;;94.10;31.77;;;;;;;3.28;97.06;102602.63;5013247;28;20568;-82
2021/11/16 07:04:48;;;;;;;88.82;30.85;;;;;;;3.28;96.55;102603.47;5012955;28;20041;-82
2021/11/16 07:07:14;;;;;;;83.63;31.98;;;;;;;3.28;96.68;102597.34;5012744;28;20080;-82
2021/11/16 07:09:41;;;;;;;89.63;31.70;;;;;;;3.29;96.28;102609.59;5012784;28;20046;-82
2021/11/16 07:12:14;;;;;;;89.65;32.67;;;;;;;3.30;96.29;102598.16;5029650;28;20579;-80
2021/11/16 07:14:41;;;;;;;97.50;32.38;;;;;;;3.30;96.54;102603.41;5045451;28;20033;-81
2021/11/16 07:17:09;;;;;;;89.25;33.55;;;;;;;3.29;96.70;102597.31;5054943;28;20040;-80
2021/11/16 07:19:40;;;;;;;99.65;33.42;;;;;;;3.31;96.51;102599.88;5054957;28;20035;-80
2021/11/16 07:22:10;;;;;;;91.78;32.80;;;;;;;3.30;96.48;102600.78;5055571;28;20250;-92
2021/11/16 07:24:50;;;;;;;89.45;31.73;;;;;;;3.29;96.00;102599.09;5058598;28;20025;-85
2021/11/16 07:27:20;;;;;;;90.35;30.48;;;;;;;3.28;96.06;102599.97;5065450;28;20029;-88
2021/11/16 07:29:52;;;;;;;83.18;29.20;;;;;;;3.29;95.56;102599.09;5063474;28;20067;-89
2021/11/16 07:32:27;;;;;;;92.82;30.45;;;;;;;3.29;95.56;102602.56;5040618;28;20455;-90
2021/11/16 07:35:04;;;;;;;88.28;31.83;;;;;;;3.29;95.77;102607.81;5038242;28;20037;-89
2021/11/16 07:37:32;;;;;;;88.28;31.40;;;;;;;3.30;95.81;102592.88;5056244;28;20050;-90
2021/11/16 07:40:08;;;;;;;88.97;30.15;;;;;;;3.31;96.22;102603.41;5055095;28;20037;-88
2021/11/16 07:42:56;;;;;;;95.20;30.27;;;;;;;3.35;96.63;102601.53;5055442;28;20071;-89
2021/11/16 07:45:24;;;;;;;84.47;29.25;;;;;;;3.35;96.54;102596.25;5055329;28;20115;-88
2021/11/16 07:47:51;;;;;;;83.13;29.17;;;;;;;3.37;95.97;102604.94;5054430;28;20128;-87
2021/11/16 07:50:32;;;;;;;83.65;30.23;;;;;;;3.37;96.00;102610.22;5055107;28;20061;-89
2021/11/16 07:53:18;;;;;;;86.25;28.92;;;;;;;3.39;95.92;102608.41;5036732;28;20033;-89
2021/11/16 07:56:15;;;;;;;83.97;28.58;;;;;;;3.40;96.11;102609.25;5054970;28;20064;-89
2021/11/16 07:58:44;;;;;;;79.13;28.08;;;;;;;3.40;95.59;102604.84;5054780;28;20040;-88
2021/11/16 08:01:33;;;;;;;75.35;27.95;;;;;;;3.40;95.39;102601.38;5055160;28;20028;-88
2021/11/16 08:04:32;;;;;;;81.38;28.13;;;;;;;3.41;95.39;102600.47;5054134;28;20388;-82
2021/11/16 08:07:09;;;;;;;83.97;28.35;;;;;;;3.41;94.91;102601.31;5058462;28;20037;-82
2021/11/16 08:12:22;;;;;;;76.72;26.73;;;;;;;3.44;94.90;102597.72;5011669;28;20076;-85
2021/11/16 08:14:56;;;;;;;73.97;26.75;;;;;;;3.44;95.15;102600.38;5012731;28;20041;-89
2021/11/16 08:17:23;;;;;;;76.80;26.55;;;;;;;3.43;94.91;102596.84;5012660;28;20061;-92
2021/11/16 08:19:58;;;;;;;75.90;25.75;;;;;;;3.44;95.21;102598.59;5020719;28;20082;-82
2021/11/16 08:22:23;;;;;;;75.72;26.05;;;;;;;3.46;95.37;102591.53;5043803;28;20029;-84
2021/11/16 08:24:49;;;;;;;69.40;27.00;;;;;;;3.48;95.70;102589.69;5053009;28;20161;-83
2021/11/16 08:27:21;;;;;;;81.95;26.77;;;;;;;3.51;96.07;102588.72;5054121;28;20032;-82
2021/11/16 08:29:50;;;;;;;80.47;27.92;;;;;;;3.52;96.27;102587.78;5053534;28;20033;-82
2021/11/16 08:32:22;;;;;;;86.38;28.15;;;;;;;3.52;95.91;102585.16;5054304;28;20032;-82
2021/11/16 08:34:54;;;;;;;72.68;26.65;;;;;;;3.51;94.82;102586.94;5053496;28;20180;-81
2021/11/16 08:37:23;;;;;;;75.18;27.23;;;;;;;3.51;94.67;102586.09;5053721;28;20032;-82
2021/11/16 08:40:00;;;;;;;78.60;27.40;;;;;;;3.51;95.63;102592.22;5053451;28;20039;-82
2021/11/16 08:42:32;;;;;;;79.20;27.35;;;;;;;3.53;95.76;102589.53;5054115;28;20029;-82
2021/11/16 08:45:14;;;;;;;72.13;26.65;;;;;;;3.54;95.56;102586.00;5052997;28;20065;-81
2021/11/16 08:47:53;;;;;;;76.63;27.25;;;;;;;3.53;95.52;102585.13;5053865;28;20063;-81
2021/11/16 08:50:27;;;;;;;74.82;26.52;;;;;;;3.55;94.34;102584.22;5053713;28;20052;-81
2021/11/16 08:52:53;;;;;;;74.95;26.58;;;;;;;3.56;94.77;102592.06;5053046;28;20495;-81
2021/11/16 08:55:22;;;;;;;74.90;26.48;;;;;;;3.58;95.43;102584.97;5053498;28;20063;-83
2021/11/16 08:57:50;;;;;;;72.22;27.60;;;;;;;3.60;95.25;102577.00;5053061;28;20086;-82
2021/11/16 09:00:22;;;;;;;75.53;27.10;;;;;;;3.61;95.38;102576.97;5053495;28;20491;-83
2021/11/16 09:02:50;;;;;;;72.05;24.80;;;;;;;3.63;94.73;102566.41;5053971;28;20044;-82
2021/11/16 09:05:18;;;;;;;84.50;27.15;;;;;;;3.66;94.73;102567.16;5053396;28;20040;-84
2021/11/16 09:07:57;;;;;;;81.10;27.35;;;;;;;3.67;94.96;102579.41;5035973;28;20069;-82
2021/11/16 09:10:33;;;;;;;76.10;27.77;;;;;;;3.68;94.97;102575.00;5053155;28;20549;-84
2021/11/16 09:13:00;;;;;;;76.55;28.65;;;;;;;3.69;95.33;102577.56;5052993;28;20052;-84
2021/11/16 09:15:48;;;;;;;76.43;26.88;;;;;;;3.69;95.51;102567.03;5053251;28;20029;-84
2021/11/16 09:18:20;;;;;;;65.22;25.80;;;;;;;3.73;94.63;102570.41;5053291;28;20116;-84
2021/11/16 09:21:14;;;;;;;68.28;25.30;;;;;;;3.76;94.42;102578.22;5035229;28;20440;-85
2021/11/16 09:24:00;;;;;;;80.68;27.92;;;;;;;3.78;95.57;102584.31;5045576;28;20404;-85
2021/11/16 09:28:57;;;;;;;74.10;27.67;;;;;;;3.79;94.00;102583.41;5052417;28;20033;-85
2021/11/16 09:31:33;;;;;;;63.47;24.02;;;;;;;3.79;93.88;102582.53;5053001;28;20055;-86
2021/11/16 09:34:21;;;;;;;68.63;26.27;;;;;;;3.79;94.12;102574.63;5054538;28;20118;-87
2021/11/16 09:36:57;;;;;;;68.05;26.27;;;;;;;3.79;94.06;102575.50;5053594;28;20032;-83
2021/11/16 09:40:04;;;;;;;72.38;27.10;;;;;;;3.79;94.00;102570.25;5052835;28;20079;-88
2021/11/16 09:42:40;;;;;;;61.22;25.13;;;;;;;3.80;92.69;102574.56;5029810;28;20040;-89
2021/11/16 09:45:16;;;;;;;71.15;25.38;;;;;;;3.81;93.73;102567.56;5052385;28;20086;-89
2021/11/16 09:47:43;;;;;;;77.18;28.48;;;;;;;3.83;94.39;102573.63;5052699;28;20076;-87
2021/11/16 09:50:19;;;;;;;70.60;27.10;;;;;;;3.84;93.59;102565.66;5052342;28;20040;-86
2021/11/16 09:52:47;;;;;;;70.90;28.30;;;;;;;3.85;93.38;102563.88;5052923;28;20021;-90
2021/11/16 09:55:34;;;;;;;71.50;27.73;;;;;;;3.85;93.51;102559.50;5051489;28;20483;-86
2021/11/16 09:58:03;;;;;;;73.60;27.63;;;;;;;3.86;93.30;102562.97;5052181;28;20033;-85
2021/11/16 10:00:34;;;;;;;72.85;27.60;;;;;;;3.85;92.49;102564.75;5052563;28;20040;-84
2021/11/16 10:02:59;;;;;;;71.75;28.40;;;;;;;3.83;92.28;102557.81;5052439;28;20030;-88
2021/11/16 10:05:26;;;;;;;82.18;28.80;;;;;;;3.83;92.79;102561.28;5052922;28;20495;-87
2021/11/16 10:08:03;;;;;;;66.78;27.15;;;;;;;3.82;92.35;102562.22;5052813;28;20029;-89
2021/11/16 10:10:34;;;;;;;79.97;27.88;;;;;;;3.82;93.52;102562.22;5052949;28;20032;-88
2021/11/16 10:13:02;;;;;;;;;;;;;;;3.83;94.49;102557.81;5053426;28;20055;-85
2021/11/16 10:15:31;;;;;;;73.57;27.15;;;;;;;3.82;94.42;102549.06;5052786;28;19955;-86
2021/11/16 10:17:57;;;;;;;69.75;26.60;;;;;;;3.85;94.51;102548.97;5052222;28;20127;-79
2021/11/16 10:20:29;;;;;;;77.03;28.45;;;;;;;3.87;94.16;102541.00;5034851;28;20120;-87
2021/11/16 10:22:57;;;;;;;;;;;;;;;3.92;94.85;102540.84;5053141;28;20029;-89
2021/11/16 10:25:29;;;;;;;79.03;27.88;;;;;;;3.96;94.80;102537.19;5034624;28;20328;-87
2021/11/16 10:27:58;;;;;;;73.80;26.05;;;;;;;4.01;94.96;102535.22;5054928;28;20036;-86
2021/11/16 10:30:29;;;;;;;76.18;27.60;;;;;;;4.04;94.91;102540.38;5053696;28;20461;-86
2021/11/16 10:33:10;;;;;;;74.57;27.20;;;;;;;4.04;94.46;102538.59;5052741;28;20044;-89
2021/11/16 10:35:39;;;;;;;67.10;26.48;;;;;;;4.06;94.57;102528.88;5052564;28;20029;-87
2021/11/16 10:38:07;;;;;;;69.80;26.42;;;;;;;4.10;94.62;102534.03;5052636;28;20473;-87
2021/11/16 10:40:33;;;;;;;76.88;27.38;;;;;;;4.08;93.95;102536.75;5052530;28;20473;-86
2021/11/16 10:43:01;;;;;;;72.00;26.63;;;;;;;4.06;93.91;102531.53;5052455;28;20040;-89
2021/11/16 10:45:33;;;;;;;80.45;29.63;;;;;;;4.09;94.85;102532.31;5052478;28;20155;-86
2021/11/16 10:48:02;;;;;;;75.47;27.55;;;;;;;4.11;94.81;102528.72;5053453;28;20136;-88
2021/11/16 10:50:30;;;;;;;78.65;27.63;;;;;;;4.12;94.59;102530.44;5052561;28;20033;-86
2021/11/16 10:53:09;;;;;;;80.47;29.83;;;;;;;4.14;94.30;102525.13;5052002;28;20021;-84
2021/11/16 10:55:42;;;;;;;81.47;26.88;;;;;;;4.16;94.67;102524.13;5034079;28;20546;-85
2021/11/16 10:58:13;;;;;;;85.15;29.08;;;;;;;4.21;95.32;102511.66;5051935;28;20201;-85
2021/11/16 11:00:46;;;;;;;74.90;26.83;;;;;;;4.25;95.56;102509.75;5052515;28;20036;-85
2021/11/16 11:03:24;;;;;;;77.97;27.33;;;;;;;4.27;94.68;102501.78;5056554;28;20028;-86
2021/11/16 11:05:53;;;;;;;76.90;27.77;;;;;;;4.33;94.71;102491.03;5059293;28;20346;-86
2021/11/16 11:08:47;;;;;;;70.63;26.35;;;;;;;4.30;94.47;102488.50;5038990;28;20353;-91
2021/11/16 11:11:21;;;;;;;66.72;26.33;;;;;;;4.28;94.07;102488.56;5055155;28;20431;-82
2021/11/16 11:13:56;;;;;;;76.00;26.50;;;;;;;4.31;93.57;102490.22;5055341;28;20036;-83
2021/11/16 11:16:22;;;;;;;77.63;27.08;;;;;;;4.30;94.25;102485.88;5055060;28;20037;-83
2021/11/16 11:18:49;;;;;;;71.07;26.13;;;;;;;4.28;94.29;102485.09;5042375;22;20135;-75
2021/11/16 11:21:26;;;;;;;68.47;25.92;;;;;;;4.24;93.49;102479.94;5065117;22;20055;-75
2021/11/16 11:23:56;;;;;;;69.78;25.73;;;;;;;4.24;93.53;102477.28;5055263;28;20102;-76
2021/11/16 11:26:34;;;;;;;65.63;23.60;;;;;;;4.26;93.66;102465.84;5037058;28;20033;-76
2021/11/16 11:29:19;;;;;;;58.92;24.30;;;;;;;4.26;93.12;102471.97;5055399;28;20571;-76
2021/11/16 11:31:48;;;;;;;65.10;23.27;;;;;;;4.23;92.76;102470.28;5055181;28;20029;-76
2021/11/16 11:34:14;;;;;;;64.97;24.85;;;;;;;4.26;93.23;102466.69;5054536;28;20047;-76
2021/11/16 11:36:41;;;;;;;62.03;24.63;;;;;;;4.29;93.60;102458.66;5054913;28;20465;-76
2021/11/16 11:39:21;;;;;;;62.00;23.65;;;;;;;4.31;92.82;102458.59;5054796;28;20039;-79
2021/11/16 11:41:56;;;;;;;65.28;23.80;;;;;;;4.33;93.18;102460.28;5055036;28;20115;-75
2021/11/16 11:44:23;;;;;;;57.17;22.63;;;;;;;4.33;93.17;102459.41;5036825;28;20120;-75
2021/11/16 11:46:59;;;;;;;60.60;22.58;;;;;;;4.33;92.92;102459.41;5054674;28;20071;-76